Academia, Pennsylvania
Current Conditions -  °F | °C
As of 4:53 PM on Friday 28 Nov 2014 (Local Time) from KUNV Reporting Station
Broken Clouds Broken Clouds  
Wind Chill: 15°   Ceiling: 4100
Heat Index: 25°   Visibility: 10mi
Dew Point: 12°   Wind: 9mph
Humidity: 59%   Direction: 280°W
Pressure: 30.21"   Gusts: NA
Location:  40.4991°N, 77.4687°W
Report Text: KUNV 282153Z 28008KT 10SM BKN041 M04/M11 A3021
Loading
Personal Weather Stations






























Interactive Weather Map New forecast layout! Learn more

10-Day Weather Forecast

Advertisements
Track Severe Weather on mobile